This is the latest recevied weather packets stored in our database for station/object KQ4KX. If no packets are shown the sender has not sent any weather packets the latest 10 day(s).
| Time | Temp. | Humidity | Pressure | Rain* | Wind** | Luminosity | Snow |
|---|---|---|---|---|---|---|---|
| 1788466236 | 31.67° C | 80% | 1012.7 hPa | 0 mm | - | - | - |
| 1788465274 | 31.11° C | 82% | 1013.2 hPa | 0 mm | - | - | - |
| 1788464974 | 31.11° C | 83% | 1013.2 hPa | 0 mm | - | - | - |
| 1788464885 | 31.11° C | 82% | 1013.3 hPa | 0 mm | - | - | - |
| 1788464674 | 31.11° C | 82% | 1013.3 hPa | 0 mm | - | - | - |
| 1788464374 | 31.11° C | 81% | 1013.4 hPa | 0 mm | - | - | - |
| 1788464233 | 31.11° C | 82% | 1013.5 hPa | 0 mm | - | - | - |
| 1788464076 | 31.11° C | 82% | 1013.5 hPa | 0 mm | - | - | - |
| 1788463444 | 31.67° C | 80% | 1013.6 hPa | 0 mm | - | - | - |
| 1788462844 | 31.67° C | 80% | 1013.8 hPa | 0 mm | - | - | - |
| 1788462514 | 31.67° C | 81% | 1013.9 hPa | 0 mm | - | - | - |
| 1788461554 | 31.67° C | 81% | 1013.8 hPa | 0 mm | - | - | - |
| 1788461224 | 31.67° C | 82% | 1013.8 hPa | 0 mm | - | - | - |
| 1788460919 | 31.11° C | 84% | 1013.6 hPa | 0 mm | - | - | - |
| 1788460595 | 30.56° C | 85% | 1013.7 hPa | 0 mm | - | - | - |
| 1788460264 | 30.56° C | 83% | 1013.8 hPa | 0 mm | - | - | - |
| 1788459964 | 31.11° C | 81% | 1013.9 hPa | 0 mm | - | - | - |
| 1788459635 | 31.67° C | 80% | 1013.9 hPa | 0 mm | - | - | - |
| 1788459035 | 32.78° C | 75% | 1014 hPa | 0 mm | - | - | - |
| 1788458581 | 33.33° C | 73% | 1014.2 hPa | 0 mm | - | - | - |
| 1788458405 | 33.33° C | 73% | 1014.2 hPa | 0 mm | - | - | - |
| 1788458317 | 32.78° C | 73% | 1014.3 hPa | 0 mm | - | - | - |
| 1788458105 | 32.78° C | 73% | 1014.3 hPa | 0 mm | - | - | - |
| 1788457774 | 33.33° C | 73% | 1014.4 hPa | 0 mm | - | - | - |
| 1788457474 | 33.89° C | 71% | 1014.5 hPa | 0 mm | - | - | - |
* Rain latest hour (hover to see other rain measurements)
** Current wind speed in m/s (hover to see current wind gust speed)